x

New London Ledge Ct - Ledge Light Weather Station (ldlc3) Weather Station

11:45 - Tue 23rd Sep 2014 All times are EDT. -4 hours from GMT.

  • Wind
    6mph, 7mph gusts
  • Air Temp 61°f
  • Sea Pressure 1025.8mb
  • New London Ledge Ct - Ledge Light Weather Station
  • New London Ledge Ct - Ledge Light Weather Station

More Historic Weather Station data

Upgrade to MSW Pro to gain access to the past 30 days of data for over 8000 Wavebouys and Weather Stations around the globe.

Join Pro

Comparision Forecast

View Surf forecast
   
mar. 09/23 11:45 6 7 mph 1025.8mb 61f
11:30 6 8 mph 1025.6mb 60f
11:15 5 6 mph 1025.6mb 60f
11:00 5 7 mph 1025.7mb 60f
10:45 6 8 mph 1025.7mb 60f
10:30 5 7 mph 1025.7mb 59f
10:15 5 6 mph 1025.6mb 59f
10:00 3 5 mph 1025.6mb 59f
9:45 2
mph
1025.6mb 59f
9:30 1 2 mph 1025.6mb 60f
9:15 5 7 mph 1025.4mb 58f
9:00 7 9 mph 1025.2mb 56f
8:45 9 11 mph 1025.1mb 56f
8:30 8 11 mph 1024.8mb 56f
8:15 7 9 mph 1024.7mb 54f
8:00 6 7 mph 1024.6mb 54f
7:45 6 7 mph 1024.5mb 52f
7:30 5 6 mph 1024.3mb 51f
7:15 5 6 mph 1024mb 51f
7:00 6 7 mph 1023.6mb 51f
6:45 5 7 mph 1023.6mb 50f
6:30 5 7 mph 1023.3mb 50f
6:15 5 6 mph 1023mb 49f
6:00 7 8 mph 1022.9mb 49f
5:45 6 8 mph 1022.7mb 50f
5:30 7 8 mph 1022.5mb 51f
5:15 6 7 mph 1022.4mb 51f
5:00 9 11 mph 1022.1mb 52f
4:45 9 11 mph 1021.9mb 52f
4:30 9 10 mph 1021.8mb 51f
4:15 8 10 mph 1021.6mb 51f
4:00 8 9 mph 1021.3mb 50f
3:45 8 9 mph 1021.2mb 50f
3:30 8 9 mph 1021.1mb 51f
3:15 7 10 mph 1021.1mb 51f
3:00 3 6 mph 1021.1mb 51f
2:45 6 7 mph 1021mb 51f
2:30 9 11 mph 1020.9mb 51f
2:15 10 13 mph 1020.6mb 52f
2:00 11 13 mph 1020.3mb 52f
1:45 11 13 mph 1020.2mb 53f
1:30 10 13 mph 1020.2mb 53f
1:15 10 11 mph 1020.3mb 53f
1:00 10 13 mph 1020.1mb 53f
lun. 09/22 7:45 17 21 mph 1014.3mb 64f
7:30 16 20 mph 1013.9mb 64f
7:15 16 22 mph 1013.6mb 65f
7:00 17 22 mph 1013mb 66f
6:45 9 10 mph 1012.9mb 67f
6:30 13 16 mph 1012.5mb 68f
6:15 13 15 mph 1012.3mb 69f
6:00 13 16 mph 1012mb 69f
5:45 15 18 mph 1011.7mb 70f
5:30 11 14 mph 1011.6mb 71f
5:15 16 25 mph 1011.3mb 70f
5:00 16 22 mph 1010.9mb 70f
4:45 18 25 mph 1010.6mb 70f
4:30 15 21 mph 1010.5mb 70f
4:15 17 22 mph 1010.3mb 71f
4:00 18 25 mph 1010.2mb 71f
3:45 16 21 mph 1010.1mb 71f
3:30 21 25 mph 1010mb 71f
3:15 22 29 mph 1009.8mb 71f
3:00 21 26 mph 1009.6mb 71f
2:45 17 24 mph 1009.6mb 71f
2:30 18 23 mph 1009.4mb 71f
2:15 22 26 mph 1009.1mb 71f
2:00 18 25 mph 1009mb 71f
1:45 22 26 mph 1009mb 71f
1:30 18 25 mph 1009.1mb 70f
1:15 15 20 mph 1009.1mb 70f
1:00 21 26 mph 1008.7mb 70f
12:45 17 24 mph 1008.9mb 70f
12:30 18 24 mph 1008.8mb 70f
12:15 18 24 mph 1008.8mb 70f
12:00 21 26 mph 1008.5mb 69f
11:45 23 29 mph 1008.5mb 69f
11:30 18 24 mph 1008.6mb 69f
11:15 16 22 mph 1008.7mb 68f
11:00 18 28 mph 1008.5mb 68f
10:45 16 21 mph 1008.5mb 67f
10:30 15 20 mph 1008.4mb 67f
10:15 15 21 mph 1008.3mb 66f
10:00 17 23 mph 1008.1mb 66f
9:45 17 24 mph 1008.1mb 66f
9:30 17 21 mph 1007.8mb 65f
9:15 17 20 mph 1007.5mb 65f
9:00 15 20 mph 1007.3mb 65f
8:45 18 23 mph 1006.9mb 65f
8:30 17 22 mph 1006.6mb 64f
8:15 17 22 mph 1006.4mb 64f
8:00 18 21 mph 1006mb 65f
7:45 16 18 mph 1005.9mb 65f
7:30 15 18 mph 1005.7mb 65f
7:15 13 16 mph 1005.3mb 65f
7:00 15 17 mph 1005mb 65f
6:45 15 20 mph 1004.8mb 65f
6:30 14 17 mph 1004.3mb 66f
6:15 17 20 mph 1003.9mb 67f
6:00 17 20 mph 1003.6mb 67f
5:45 13 16 mph 1003.6mb 67f
5:30 9 10 mph 1003.5mb 67f
5:15 7 9 mph 1003.3mb 67f
5:00 8 9 mph 1003.1mb 68f
4:45 7 8 mph 1003mb 68f
4:30 9 10 mph 1002.8mb 68f
4:15 10 13 mph 1002.4mb 69f
4:00 10 15 mph 1002mb 69f
3:45 11 16 mph 1001.7mb 70f
3:30 8 10 mph 1001.5mb 70f
3:15 10 14 mph 1001.5mb 70f
3:00 16 18 mph 1001.8mb 70f
2:45 17 22 mph 1001.6mb 69f
2:30 16 21 mph 1001.7mb 69f
2:15 16 18 mph 1001.7mb 69f
2:00 18 20 mph 1001.7mb 69f
1:45 17 22 mph 1001.6mb 69f
1:30 16 18 mph 1001.7mb 69f
1:15 16 18 mph 1001.8mb 69f
1:00 11 14 mph 1001.7mb 69f
dim. 09/21 7:45 2 3 mph 1002.3mb 69f
7:30 7 8 mph 1002.1mb 69f
7:15 9 11 mph 1001.9mb 69f
7:00 5 6 mph 1002.5mb 70f
6:45 1 2 mph 1002.7mb 71f
6:30  -  2 mph 1002.6mb 71f
6:15 7 9 mph 1002.7mb 71f
6:00 8 9 mph 1002.8mb 72f
5:45 13 14 mph 1003.2mb 71f
5:30 16 18 mph 1003.8mb 70f
5:15 18 22 mph 1003.9mb 70f
5:00 18 21 mph 1004.2mb 70f
4:45 15 16 mph 1004.4mb 69f
4:30 14 17 mph 1004.7mb 70f
4:15 11 14 mph 1004.8mb 70f
4:00 10 13 mph 1005.1mb 70f
3:45 9 10 mph 1005.3mb 70f
3:30 10 11 mph 1005.5mb 70f
3:15 9 11 mph 1005.9mb 70f
3:00 9 10 mph 1006mb 70f
2:45 8
mph
1006.5mb 70f
2:30 9
mph
1006.5mb 70f
2:15 9 10 mph 1006.6mb 70f
2:00 11
mph
1006.9mb 70f
1:45 11 14 mph 1007.3mb 70f
1:30 11 13 mph 1007.8mb 71f
1:15 13 16 mph 1008.2mb 72f
1:00 15 16 mph 1008.4mb 72f
12:45 16 17 mph 1008.8mb 72f
12:30 14 16 mph 1009.4mb 72f
12:15 14 15 mph 1009.7mb 72f
12:00 13 15 mph 1010.2mb 72f
11:45 14 15 mph 1010.3mb 71f
11:30 15 17 mph 1010.7mb 72f
11:15 16 18 mph 1010.8mb 72f
11:00 16 17 mph 1011mb 72f
10:45 14 16 mph 1011.1mb 72f
10:30 13 15 mph 1011.4mb 71f
10:15 13 14 mph 1011.6mb 71f
10:00 11 14 mph 1012mb 71f
9:45 10 13 mph 1012mb 71f
9:30 11 14 mph 1012.1mb 71f
9:15 11 13 mph 1012.1mb 71f
9:00 14 16 mph 1012.1mb 71f
8:45 15 16 mph 1012.4mb 71f
8:30 13 15 mph 1012.5mb 70f
8:15 15 16 mph 1012.5mb 71f
8:00 14 15 mph 1012.7mb 71f
7:45 9 10 mph 1013.1mb 70f
7:30 7 8 mph 1013.2mb 70f
7:15 7 9 mph 1013.2mb 70f
7:00 11 13 mph 1013.1mb 70f
6:45 13 15 mph 1013.2mb 71f
6:30 16 18 mph 1013.2mb 71f
6:15 17 18 mph 1013.1mb 71f
6:00 18 20 mph 1013.2mb 71f
5:45 18 21 mph 1013.2mb 71f
5:30 21 24 mph 1013.3mb 71f
5:15 21 23 mph 1013.5mb 71f
5:00 20 22 mph 1013.6mb 71f
4:45 15 18 mph 1013.7mb 70f
4:30 11 14 mph 1014mb 70f
4:15 13 14 mph 1014.2mb 70f
4:00 11 14 mph 1014.3mb 70f
3:45 5 6 mph 1014.7mb 68f
3:30 3 6 mph 1014.7mb 67f
3:15 6 7 mph 1015.2mb 66f
3:00 6 7 mph 1015.3mb 66f
2:45 9 10 mph 1015.6mb 66f
2:30 6 7 mph 1015.9mb 67f
2:15 5 6 mph 1016.3mb 68f
2:00 7
mph
1016.5mb 68f
1:45 8
mph
1016.9mb 68f
1:30 9 10 mph 1017.1mb 67f
1:15 8 9 mph 1017.5mb 68f
1:00 7 9 mph 1017.6mb 68f
sam. 09/20 7:45 14 15 mph 1020.4mb 68f
7:30 13 14 mph 1020.3mb 68f
7:15 11 13 mph 1020.3mb 68f
7:00 11 13 mph 1020.5mb 68f
6:45 10 11 mph 1020.7mb 69f
6:30 13 14 mph 1020.8mb 69f
6:15 15 16 mph 1020.9mb 69f
6:00 17 20 mph 1021mb 69f
5:45 20 22 mph 1021.1mb 69f
5:30 20 22 mph 1021.3mb 69f
5:15 20 22 mph 1021.4mb 69f
5:00 17 21 mph 1021.7mb 70f
4:45 16 18 mph 1021.9mb 69f
4:30 15 17 mph 1022mb 69f
4:15 17 20 mph 1022mb 69f
4:00 16 20 mph 1022.2mb 69f
3:45 16 20 mph 1022.3mb 68f
3:30 16 17 mph 1022.4mb 68f
3:15 17 18 mph 1022.4mb 68f
3:00 17 20 mph 1022.8mb 68f
2:45 17 20 mph 1023mb 68f
2:30 18 21 mph 1023.1mb 68f
2:15 17 20 mph 1023.3mb 67f
2:00 15 17 mph 1023.3mb 67f
1:45 14 17 mph 1023.6mb 67f
1:30 11 15 mph 1024mb 67f
1:15 11 14 mph 1024.3mb 67f
1:00 9 11 mph 1024.7mb 68f
12:45 10 13 mph 1024.7mb 67f
12:30 13 14 mph 1024.7mb 66f
12:15 13 15 mph 1024.8mb 67f
12:00 11 14 mph 1025.1mb 67f
11:45 11 14 mph 1025.2mb 66f
11:30 13 15 mph 1025.3mb 65f
11:15 14 16 mph 1025.2mb 65f
11:00 16 18 mph 1025.3mb 65f
10:45 15 18 mph 1025.5mb 65f
10:30 16 18 mph 1025.5mb 64f
10:15 16 18 mph 1025.6mb 64f
10:00 16 18 mph 1025.7mb 64f
9:45 16 20 mph 1025.8mb 63f
9:30 16 20 mph 1025.8mb 64f
9:15 15 17 mph 1025.8mb 63f
9:00 15 17 mph 1026.2mb 63f
8:45 13 15 mph 1026.3mb 63f
8:30 14 16 mph 1026.2mb 63f
8:15 2 3 mph 1026.5mb 60f
8:00 5 9 mph 1026.5mb 57f
7:45 6 7 mph 1026.7mb 57f
7:30 5 7 mph 1026.9mb 56f
7:15 7 9 mph 1027mb 54f
7:00 10 11 mph 1027.2mb 55f
6:45 5 7 mph 1027.1mb 55f
6:30 5 7 mph 1027mb 55f
6:15 8 10 mph 1027mb 55f
6:00 8 9 mph 1027mb 54f
5:45 7 8 mph 1026.8mb 54f
5:30 6 7 mph 1026.8mb 53f
5:15 6 8 mph 1026.8mb 53f
5:00 7 8 mph 1027mb 54f
4:45 8 9 mph 1027.2mb 53f
4:30 9 11 mph 1027.2mb 54f
4:15 9 13 mph 1027.1mb 55f
4:00 6 9 mph 1027.3mb 60f
3:45 10 11 mph 1027.2mb 59f
3:30 13 16 mph 1027.3mb 59f
3:15 11 14 mph 1027.4mb 60f
3:00 13 14 mph 1027.4mb 59f
2:45 11 14 mph 1027.6mb 59f
2:30 13 16 mph 1027.5mb 59f
2:15 15 18 mph 1027.4mb 59f
2:00 15 18 mph 1027.3mb 59f
1:45 16 18 mph 1027.4mb 59f
1:30 17 23 mph 1027.3mb 58f
1:15 16 20 mph 1027.4mb 58f
1:00 18 22 mph 1027.6mb 58f
ven. 09/19 7:45 15 18 mph 1028.3mb 58f
7:30 16 20 mph 1028mb 58f
7:15 15 22 mph 1027.8mb 58f
7:00 16 18 mph 1027.7mb 58f
6:45 17 21 mph 1027.5mb 58f
6:30 16 20 mph 1027.6mb 58f
6:15 16 21 mph 1027.4mb 58f
6:00 16 20 mph 1027.3mb 58f
5:45 16 20 mph 1027.3mb 59f
5:30 17 21 mph 1027.2mb 59f
5:15 17 21 mph 1027mb 59f
5:00 15 20 mph 1027.1mb 60f
4:45 14 16 mph 1027.4mb 60f